• Join FlightAware (Why Join?)
  • Login
  • US Flag 
11:16AM EDT


 

Airport Tracker/Info


-or-


 

Live Flight TrackerFlight Track Log ✈ N28JK ✈ 05-Sep-2013 ✈ KBGR

Flight Track Log - Related Links

Times and Time Zones

All times are in EDT time to prevent confusion due to time zone crossing. See the N28JK flight status page for this flight to view local times or setup timezone preferences in your user account.

Time Position Orientation Groundspeed Altitude Reporting Facility
EDT Latitude Longitude Course Direction KTS MPH feet Rate Location/Type
10:06AM 41.2789 -74.4558 51° Northeast 240 276 16,100  Level Boston Center
10:07AM 41.3333 -74.3667 51° Northeast 247 284 15,600 -240 Descending New York TRACON
10:08AM 41.3833 -74.3000 45° Northeast 246 283 15,600  Level New York TRACON
10:09AM 41.4308 -74.2086 55° Northeast 262 302 15,600  Level Boston Center
10:10AM 41.4717 -74.1394 52° Northeast 260 299 15,600  Level Boston Center
10:11AM 41.5242 -74.0561 50° Northeast 263 303 15,600  Level Boston Center
10:12AM 41.5719 -73.9769 51° Northeast 256 295 15,600  Level Boston Center
10:13AM 41.6169 -73.9031 51° Northeast 258 297 15,600 240 Level Boston Center
10:15AM 41.6614 -73.8292 51° Northeast 256 295 16,100 1,020 Climbing Boston Center
10:16AM 41.7022 -73.7600 52° Northeast 222 255 17,700 1,380 Climbing Boston Center
10:17AM 41.7433 -73.7033 46° Northeast 212 244 19,000 600 Climbing Boston Center
10:18AM 41.7897 -73.6344 48° Northeast 251 289 19,000 480 Level Boston Center
10:19AM 41.8397 -73.5556 50° Northeast 263 303 20,100 1,320 Climbing Boston Center
10:20AM 41.8828 -73.4956 46° Northeast 228 262 21,700 1,440 Climbing Boston Center
10:21AM 41.9231 -73.4422 45° Northeast 209 241 23,100 600 Climbing Boston Center
10:22AM 41.9683 -73.3806 45° Northeast 226 260 23,000 -60 Descending Boston Center
10:23AM 42.0175 -73.2939 53° Northeast 286 329 23,000  Level Boston Center
10:24AM 42.0725 -73.2092 49° Northeast 298 343 23,000  Level Boston Center
10:25AM 42.1294 -73.1306 46° Northeast 296 341 23,000  Level Boston Center
10:26AM 42.1858 -73.0478 47° Northeast 299 344 23,000  Level Boston Center
10:27AM 42.2525 -72.9456 49° Northeast 305 351 23,000  Level Boston Center
10:28AM 42.3086 -72.8614 48° Northeast 306 352 23,000  Level Boston Center
10:29AM 42.3608 -72.7822 48° Northeast 300 345 23,000  Level Boston Center
10:30AM 42.4169 -72.6997 47° Northeast 299 344 23,000  Level Boston Center
10:31AM 42.4717 -72.6158 48° Northeast 297 342 23,000  Level Boston Center
10:32AM 42.5369 -72.5172 48° Northeast 294 338 23,000  Level Boston Center
10:33AM 42.5917 -72.4333 48° Northeast 295 339 23,000  Level Boston Center
10:34AM 42.6472 -72.3475 49° Northeast 301 346 23,000  Level Boston Center
10:35AM 42.7017 -72.2636 49° Northeast 298 343 23,000  Level Boston Center
10:36AM 42.7564 -72.1767 49° Northeast 300 345 23,000  Level Boston Center
10:37AM 42.8114 -72.0925 48° Northeast 300 345 23,000  Level Boston Center
10:38AM 42.8661 -72.0097 48° Northeast 297 342 23,000  Level Boston Center
10:39AM 42.9197 -71.9281 48° Northeast 292 336 23,000  Level Boston Center
10:40AM 42.9831 -71.8269 49° Northeast 293 337 23,000  Level Boston Center
10:41AM 43.0367 -71.7419 49° Northeast 295 339 23,000  Level Boston Center
10:42AM 43.0906 -71.6569 49° Northeast 296 341 23,000  Level Boston Center
10:43AM 43.1453 -71.5722 48° Northeast 298 343 23,000  Level Boston Center
10:44AM 43.2003 -71.4878 48° Northeast 298 343 23,000  Level Boston Center
10:45AM 43.2528 -71.3992 51° Northeast 299 344 23,000  Level Boston Center
10:46AM 43.3081 -71.3122 49° Northeast 302 348 23,000  Level Boston Center
10:47AM 43.3633 -71.2256 49° Northeast 303 349 23,000  Level Boston Center
10:48AM 43.4186 -71.1386 49° Northeast 302 348 23,000  Level Boston Center
10:49AM 43.4839 -71.0306 50° Northeast 306 352 23,000  Level Boston Center
10:50AM 43.5411 -70.9419 48° Northeast 309 356 23,000  Level Boston Center
10:51AM 43.5953 -70.8511 51° Northeast 308 354 23,000  Level Boston Center
10:52AM 43.6519 -70.7711 46° Northeast 309 356 23,000  Level Boston Center
10:53AM 43.7067 -70.6736 52° Northeast 316 364 23,000  Level Boston Center
10:54AM 43.7619 -70.5819 50° Northeast 312 359 23,000  Level Boston Center
10:55AM 43.8200 -70.4906 49° Northeast 314 361 23,000 -240 Level Boston Center
10:56AM 43.8878 -70.3786 50° Northeast 315 362 22,600 -600 Descending Boston Center
10:57AM 43.9478 -70.2844 48° Northeast 322 371 21,800 -900 Descending Boston Center
10:58AM 44.0069 -70.1858 50° Northeast 328 377 20,800 -1,020 Descending Boston Center
11:00AM 44.0642 -70.0892 50° Northeast 326 375 19,800 -1,020 Descending Boston Center
11:01AM 44.1211 -69.9928 51° Northeast 310 357 18,700 -1,080 Descending Boston Center
11:02AM 44.1756 -69.9033 50° Northeast 304 350 17,700 -1,020 Descending Boston Center
11:03AM 44.2281 -69.8164 50° Northeast 295 339 16,700 -1,080 Descending Boston Center
11:04AM 44.2833 -69.7228 50° Northeast 289 333 15,600 -1,080 Descending Boston Center
11:05AM 44.3278 -69.6497 50° Northeast 279 321 14,600 -1,020 Descending Boston Center
11:06AM 44.3769 -69.5675 50° Northeast 278 320 13,600 -1,080 Descending Boston Center
11:07AM 44.4008 -69.4686 71° East 275 316 12,500 -1,140 Descending Boston Center
11:08AM 44.4186 -69.3742 75° East 259 298 11,400 -1,200 Descending Boston Center
11:09AM 44.4422 -69.2656 73° East 247 284 10,100 -1,200 Descending Boston Center
11:10AM 44.4606 -69.1775 74° East 241 277 9,000 -1,020 Descending Boston Center
11:11AM 44.4783 -69.0867 75° East 241 277 8,000 -1,080 Descending Boston Center
11:12AM 44.5011 -69.0011 70° East 237 273 6,900 -960 Descending Boston Center
11:13AM 44.5269 -68.9228 65° Northeast 227 261 6,100 -840 Descending Boston Center
11:14AM 44.5486 -68.8469 68° East 215 247 5,200 -900 Descending Boston Center
11:15AM 44.5703 -68.7731 68° East 208 239 4,400 -780 Descending Boston Center
11:16AM 44.6036 -68.7178 50° Northeast 188 216 3,700 -780 Descending Boston Center
11:17AM 44.6372 -68.6639 49° Northeast 185 213 2,800 -600 Descending Boston Center
11:18AM 44.6733 -68.6369 28° Northeast 173 199 2,500 -180 Descending Boston Center
11:19AM 44.7028 -68.6761 317° Northwest 156 180 2,500 -300 Level Boston Center
11:20AM 44.7347 -68.7242 313° West 145 167 1,900 -720 Descending Boston Center
11:21AM 44.7642 -68.7656 315° West 146 168 1,100 -720 Descending Boston Center
11:22AM 44.7886 -68.8008 314° West 137 158 500 -420 Descending Boston Center
11:23AM 44.8119 -68.8328 316° Northwest 135 155 300 -240 Descending Boston Center